Time;durP1;ratioP1;P1;durP2;ratioP2;P2;SDS_P1;SDS_P2;PMS_P1;PMS_P2;Temp;Humidity;BMP_temperature;BMP_pressure;BME280_temperature;BME280_humidity;BME280_pressure;Samples;Min_cycle;Max_cycle;Signal;HPM_P1;HPM_P2
2024/02/19 00:01:25;;;;;;;19.95;16.48;;;;;;;7.54;63.24;95529.34;4223258;28;20462;-68
2024/02/19 00:03:27;;;;;;;17.65;15.68;;;;;;;7.54;63.61;95526.72;4237381;28;20116;-67
2024/02/19 00:05:30;;;;;;;18.52;16.52;;;;;;;7.51;63.37;95530.41;4240027;28;20405;-68
2024/02/19 00:07:32;;;;;;;19.05;15.85;;;;;;;7.55;63.50;95531.81;4240085;28;20054;-70
2024/02/19 00:09:34;;;;;;;18.77;16.77;;;;;;;7.62;63.45;95526.97;4237820;28;20043;-68
2024/02/19 00:11:36;;;;;;;18.95;15.68;;;;;;;7.65;63.30;95525.88;4239815;28;20483;-69
2024/02/19 00:13:38;;;;;;;18.38;16.48;;;;;;;7.60;63.42;95523.63;4238796;28;20043;-69
2024/02/19 00:15:40;;;;;;;17.95;16.00;;;;;;;7.55;63.17;95518.78;4229296;28;20054;-69
2024/02/19 00:17:42;;;;;;;19.00;16.60;;;;;;;7.56;63.52;95530.03;4237894;28;20053;-67
2024/02/19 00:19:44;;;;;;;19.75;16.52;;;;;;;7.52;63.58;95526.00;4237930;28;20384;-67
2024/02/19 00:21:45;;;;;;;19.00;17.00;;;;;;;7.55;63.57;95526.59;4220761;28;20142;-71
2024/02/19 00:23:47;;;;;;;18.90;16.90;;;;;;;7.53;63.88;95519.88;4242602;28;20129;-68
2024/02/19 00:25:49;;;;;;;18.05;16.15;;;;;;;7.46;63.52;95529.09;4240097;28;20051;-69
2024/02/19 00:27:51;;;;;;;18.80;16.88;;;;;;;7.42;63.92;95525.91;4241334;28;20062;-69
2024/02/19 00:29:55;;;;;;;19.38;17.35;;;;;;;7.38;64.39;95525.31;4232164;28;20134;-70
2024/02/19 00:31:57;;;;;;;19.15;16.73;;;;;;;7.42;64.36;95517.25;4235918;28;20110;-70
2024/02/19 00:33:59;;;;;;;20.90;18.75;;;;;;;7.46;63.97;95519.47;4234308;28;20051;-70
2024/02/19 00:36:01;;;;;;;19.60;17.63;;;;;;;7.45;64.31;95523.06;4208994;28;20545;-68
2024/02/19 00:38:03;;;;;;;18.85;16.75;;;;;;;7.45;64.42;95514.41;4236911;28;20066;-68
2024/02/19 00:40:06;;;;;;;20.92;18.10;;;;;;;7.46;64.07;95516.06;4236021;28;20579;-69
2024/02/19 00:42:08;;;;;;;19.17;17.13;;;;;;;7.47;63.97;95517.72;4222600;28;20078;-68
2024/02/19 00:44:10;;;;;;;18.85;16.83;;;;;;;7.51;63.99;95519.16;4238525;28;20276;-71
2024/02/19 00:46:12;;;;;;;20.05;17.50;;;;;;;7.51;63.72;95512.16;4241249;27;20047;-68
2024/02/19 00:48:14;;;;;;;18.25;16.35;;;;;;;7.52;63.75;95505.16;4235545;27;20123;-69
2024/02/19 00:50:16;;;;;;;19.23;17.15;;;;;;;7.48;63.48;95503.72;4244853;27;20046;-67
2024/02/19 00:52:18;;;;;;;19.52;17.23;;;;;;;7.50;63.37;95502.66;4243312;27;20122;-70
2024/02/19 00:54:20;;;;;;;19.25;17.33;;;;;;;7.51;63.63;95499.13;4245178;27;20135;-68
2024/02/19 00:56:22;;;;;;;19.92;17.27;;;;;;;7.41;63.46;95502.56;4244921;27;20067;-67
2024/02/19 00:58:24;;;;;;;23.33;18.33;;;;;;;7.32;63.86;95502.31;4244330;27;20447;-69
2024/02/19 01:00:27;;;;;;;19.23;17.23;;;;;;;7.29;64.27;95504.34;4244992;27;20428;-67
2024/02/19 01:02:29;;;;;;;19.55;17.60;;;;;;;7.20;64.42;95500.66;4238525;27;20540;-70
2024/02/19 01:04:31;;;;;;;20.70;18.50;;;;;;;7.17;64.56;95499.13;4244390;27;20051;-69
2024/02/19 01:06:34;;;;;;;20.65;18.02;;;;;;;7.20;64.37;95499.84;4244360;27;20194;-68
2024/02/19 01:08:38;;;;;;;21.45;18.63;;;;;;;7.20;64.34;95490.25;4236492;27;20151;-68
2024/02/19 01:10:39;;;;;;;22.13;19.40;;;;;;;6.97;64.66;95490.25;4239925;27;20047;-70
2024/02/19 01:12:41;;;;;;;26.17;22.85;;;;;;;6.68;65.82;95489.03;4239596;27;20043;-68
2024/02/19 01:14:43;;;;;;;25.13;21.25;;;;;;;6.68;66.57;95489.03;4237170;27;20491;-71
2024/02/19 01:16:46;;;;;;;31.50;24.70;;;;;;;6.55;66.50;95491.72;4243326;27;20342;-69
2024/02/19 01:18:48;;;;;;;30.10;25.88;;;;;;;6.60;66.89;95486.97;4239402;27;20488;-68
2024/02/19 01:20:50;;;;;;;30.73;26.27;;;;;;;6.66;66.88;95486.53;4233848;27;20047;-69
2024/02/19 01:22:52;;;;;;;32.33;28.27;;;;;;;6.70;66.36;95487.13;4245035;27;20082;-71
2024/02/19 01:24:54;;;;;;;34.50;28.85;;;;;;;6.78;66.17;95484.78;4244274;27;20164;-69
2024/02/19 01:26:56;;;;;;;31.85;28.10;;;;;;;6.81;65.97;95489.75;4240938;27;20138;-68
2024/02/19 01:28:58;;;;;;;36.30;28.65;;;;;;;6.87;66.11;95481.47;4244273;27;20127;-69
2024/02/19 01:30:59;;;;;;;34.80;27.85;;;;;;;6.88;65.57;95487.50;4244971;27;20206;-70
2024/02/19 01:33:01;;;;;;;32.58;29.05;;;;;;;6.88;66.11;95485.75;4241686;27;20093;-69
2024/02/19 01:35:04;;;;;;;34.55;29.33;;;;;;;6.87;65.94;95478.88;4237551;27;20290;-70
2024/02/19 01:37:06;;;;;;;38.85;30.48;;;;;;;6.83;65.81;95474.00;4241305;27;20453;-68
2024/02/19 01:39:08;;;;;;;35.97;30.33;;;;;;;6.83;66.00;95482.66;4245395;27;20047;-70
2024/02/19 01:41:10;;;;;;;35.67;29.60;;;;;;;6.82;65.91;95475.81;4243784;27;20043;-69
2024/02/19 01:43:12;;;;;;;38.28;29.85;;;;;;;6.83;65.89;95477.44;4244364;27;20182;-66
2024/02/19 01:45:32;;;;;;;35.55;28.05;;;;;;;6.83;66.06;95474.00;4242534;27;20074;-69
2024/02/19 01:47:35;;;;;;;34.17;28.30;;;;;;;6.85;65.81;95475.56;4242784;27;20073;-69
2024/02/19 01:49:38;;;;;;;39.35;29.08;;;;;;;6.84;65.81;95473.91;4243878;27;20125;-67
2024/02/19 01:51:40;;;;;;;37.38;29.73;;;;;;;6.84;66.01;95473.91;4241862;27;20047;-67
2024/02/19 01:53:44;;;;;;;34.65;29.25;;;;;;;6.81;65.55;95468.91;4242988;27;20129;-69
2024/02/19 01:55:48;;;;;;;36.85;32.17;;;;;;;6.84;66.22;95467.84;4225236;28;20130;-71
2024/02/19 01:57:51;;;;;;;39.60;32.47;;;;;;;6.81;66.31;95463.72;4243999;27;20511;-69
2024/02/19 01:59:53;;;;;;;38.30;32.42;;;;;;;6.82;66.13;95460.19;4244306;27;20043;-68
2024/02/19 02:01:55;;;;;;;41.03;33.88;;;;;;;6.75;66.08;95457.22;4225390;28;20271;-70
2024/02/19 02:03:57;;;;;;;41.25;34.75;;;;;;;6.74;66.16;95449.50;4244251;27;20090;-69
2024/02/19 02:05:59;;;;;;;41.80;33.65;;;;;;;6.70;66.71;95448.91;4208617;27;20056;-68
2024/02/19 02:08:05;;;;;;;41.20;34.78;;;;;;;6.64;66.92;95448.53;4241607;27;20059;-69
2024/02/19 02:10:07;;;;;;;42.58;35.25;;;;;;;6.58;66.98;95442.00;4243725;27;20107;-68
2024/02/19 02:12:11;;;;;;;43.13;34.45;;;;;;;6.54;67.21;95446.66;4243661;27;20148;-69
2024/02/19 02:14:13;;;;;;;;;;;;;;;6.48;67.08;95436.69;4225521;28;20158;-66
2024/02/19 02:16:24;;;;;;;42.05;34.83;;;;;;;6.41;67.26;95435.50;4243936;27;20275;-67
2024/02/19 02:18:26;;;;;;;40.83;34.90;;;;;;;6.38;67.63;95440.09;4240688;27;20078;-69
2024/02/19 02:20:31;;;;;;;41.53;33.83;;;;;;;6.39;67.52;95437.41;4243544;27;20058;-68
2024/02/19 02:22:35;;;;;;;39.67;33.38;;;;;;;6.44;67.57;95440.47;4233940;27;20047;-68
2024/02/19 02:24:38;;;;;;;37.58;32.47;;;;;;;6.41;67.29;95440.72;4240408;27;20396;-68
2024/02/19 02:26:41;;;;;;;40.63;33.53;;;;;;;6.13;67.66;95447.13;4235966;27;20121;-68
2024/02/19 02:28:43;;;;;;;37.70;32.10;;;;;;;5.83;68.36;95440.63;4232526;27;20264;-71
2024/02/19 02:30:45;;;;;;;41.75;34.30;;;;;;;5.34;69.67;95446.75;4243400;27;20565;-69
2024/02/19 02:32:48;;;;;;;42.65;36.13;;;;;;;5.25;71.21;95440.44;4229868;27;20039;-69
2024/02/19 02:34:50;;;;;;;44.30;35.53;;;;;;;4.98;71.57;95444.94;4242855;27;20726;-71
2024/02/19 02:36:52;;;;;;;39.70;33.70;;;;;;;4.39;73.30;95445.50;4243643;27;20081;-68
2024/02/19 02:38:54;;;;;;;44.78;36.58;;;;;;;4.09;74.82;95450.03;4234819;27;20047;-68
2024/02/19 02:40:56;;;;;;;46.88;37.75;;;;;;;4.12;75.14;95453.34;4243015;27;20055;-69
2024/02/19 02:42:58;;;;;;;48.78;37.90;;;;;;;4.12;74.83;95453.34;4242752;27;20047;-69
2024/02/19 02:45:00;;;;;;;47.17;38.17;;;;;;;4.09;75.33;95454.41;4236587;27;20089;-69
2024/02/19 02:47:06;;;;;;;46.92;38.90;;;;;;;4.22;74.69;95463.03;4219485;27;20243;-69
2024/02/19 02:49:08;;;;;;;46.60;39.08;;;;;;;4.35;74.72;95452.66;4240982;27;20637;-69
2024/02/19 02:51:10;;;;;;;49.60;39.03;;;;;;;4.59;74.92;95454.53;4242053;27;20047;-71
2024/02/19 02:53:12;;;;;;;43.90;36.17;;;;;;;4.79;73.57;95454.00;4224707;28;20044;-68
2024/02/19 02:55:14;;;;;;;45.67;36.00;;;;;;;4.99;73.04;95456.97;4214208;28;20051;-69
2024/02/19 02:57:16;;;;;;;44.63;36.17;;;;;;;5.17;72.35;95455.72;4235679;27;20448;-67
2024/02/19 02:59:18;;;;;;;43.88;35.95;;;;;;;5.29;71.10;95460.06;4237602;27;20678;-70
2024/02/19 03:01:27;;;;;;;48.72;38.35;;;;;;;5.35;71.17;95453.56;4229823;27;20122;-69
2024/02/19 03:03:32;;;;;;;44.00;36.33;;;;;;;5.34;69.98;95459.72;4235491;27;20043;-68
2024/02/19 03:05:35;;;;;;;50.13;38.67;;;;;;;5.30;70.96;95461.69;4235832;27;20062;-69
2024/02/19 03:07:39;;;;;;;43.53;36.25;;;;;;;5.41;70.95;95457.53;4191036;28;20159;-70
2024/02/19 03:09:41;;;;;;;44.55;35.40;;;;;;;5.48;70.65;95461.34;4241943;27;20047;-67
2024/02/19 03:11:43;;;;;;;44.00;36.83;;;;;;;5.60;70.22;95460.47;4223526;28;20043;-71
2024/02/19 03:13:45;;;;;;;40.58;34.63;;;;;;;5.69;70.13;95459.81;4230557;27;20055;-68
2024/02/19 03:15:47;;;;;;;44.85;35.13;;;;;;;5.80;68.91;95453.00;4229898;27;20039;-68
2024/02/19 03:17:50;;;;;;;41.47;35.88;;;;;;;5.87;68.39;95446.41;4235841;27;20101;-68
2024/02/19 03:19:52;;;;;;;41.85;36.35;;;;;;;5.92;68.81;95454.72;4242541;27;20051;-69
2024/02/19 03:21:55;;;;;;;47.92;37.15;;;;;;;5.96;68.33;95461.38;4236085;27;20054;-68
2024/02/19 03:23:57;;;;;;;38.72;33.22;;;;;;;6.04;68.03;95453.81;4223630;28;20098;-68
2024/02/19 03:25:59;;;;;;;46.75;36.28;;;;;;;6.03;68.18;95457.38;4241707;27;20087;-68
2024/02/19 03:28:01;;;;;;;41.88;36.83;;;;;;;5.99;67.53;95448.16;4234453;28;20051;-69
2024/02/19 03:30:03;;;;;;;44.55;37.65;;;;;;;5.91;68.20;95448.66;4240113;27;20043;-68
2024/02/19 03:32:05;;;;;;;41.80;36.47;;;;;;;5.95;67.92;95449.31;4231550;28;20067;-68
2024/02/19 03:34:07;;;;;;;42.70;35.45;;;;;;;6.01;68.19;95443.66;4229228;28;20564;-68
2024/02/19 03:36:09;;;;;;;41.72;34.85;;;;;;;6.02;67.52;95441.88;4231860;27;20497;-68
2024/02/19 03:38:12;;;;;;;43.08;34.20;;;;;;;6.05;67.47;95445.09;4214882;28;20441;-69
2024/02/19 03:40:14;;;;;;;46.08;36.70;;;;;;;6.08;67.48;95444.84;4239894;28;20058;-66
2024/02/19 03:42:16;;;;;;;41.75;35.38;;;;;;;6.14;67.28;95449.63;4230262;28;20076;-67
2024/02/19 03:44:18;;;;;;;45.50;34.95;;;;;;;6.16;66.84;95444.31;4224646;28;20535;-68
2024/02/19 03:46:20;;;;;;;43.28;35.25;;;;;;;6.09;67.12;95441.34;4242770;28;20058;-68
2024/02/19 03:48:22;;;;;;;45.75;37.38;;;;;;;6.03;67.35;95446.97;4238992;28;20150;-69
2024/02/19 03:50:24;;;;;;;41.58;36.55;;;;;;;5.77;67.71;95445.44;4242420;28;20054;-67
2024/02/19 03:52:26;;;;;;;44.83;37.58;;;;;;;5.43;68.92;95453.88;4217091;28;20511;-69
2024/02/19 03:54:27;;;;;;;45.60;36.92;;;;;;;5.39;69.89;95455.03;4230562;28;20476;-68
2024/02/19 03:56:29;;;;;;;44.00;36.17;;;;;;;5.39;69.29;95451.59;4213406;28;20048;-69
2024/02/19 03:58:32;;;;;;;44.78;36.85;;;;;;;5.39;69.42;95454.19;4234471;28;20149;-66
2024/02/19 04:00:33;;;;;;;42.03;34.00;;;;;;;5.41;69.60;95452.31;4242090;28;20146;-67
2024/02/19 04:02:36;;;;;;;43.55;36.17;;;;;;;5.22;68.61;95453.63;4232365;28;20044;-68
2024/02/19 04:04:38;;;;;;;39.95;34.50;;;;;;;4.80;70.78;95458.28;4232331;28;20290;-68
2024/02/19 04:06:39;;;;;;;44.58;36.35;;;;;;;4.41;71.26;95457.44;4239175;28;20047;-70
2024/02/19 04:08:42;;;;;;;50.47;35.83;;;;;;;4.17;72.80;95456.47;4238115;28;20512;-68
2024/02/19 04:10:44;;;;;;;44.65;36.20;;;;;;;4.10;73.61;95464.66;4226179;28;20086;-68
2024/02/19 04:12:45;;;;;;;44.83;36.72;;;;;;;4.28;73.26;95461.78;4219527;28;20050;-66
2024/02/19 04:14:47;;;;;;;41.15;34.70;;;;;;;4.53;73.67;95457.53;4239550;28;20495;-67
2024/02/19 04:16:49;;;;;;;40.88;34.25;;;;;;;4.72;71.89;95458.78;4242550;28;20130;-68
2024/02/19 04:18:51;;;;;;;43.03;35.08;;;;;;;4.90;71.79;95458.44;4236803;28;20078;-68
2024/02/19 04:20:53;;;;;;;39.45;33.92;;;;;;;5.04;70.46;95454.91;4242920;27;20078;-68
2024/02/19 04:22:55;;;;;;;45.15;34.72;;;;;;;5.13;70.01;95455.09;4244808;27;20169;-67
2024/02/19 04:24:57;;;;;;;42.80;34.92;;;;;;;5.23;69.73;95454.47;4240694;27;20046;-67
2024/02/19 04:26:58;;;;;;;44.22;34.80;;;;;;;5.34;69.12;95457.94;4242900;27;20475;-68
2024/02/19 04:29:00;;;;;;;42.22;35.45;;;;;;;5.44;69.14;95459.91;4244220;27;20708;-69
2024/02/19 04:31:03;;;;;;;40.65;34.50;;;;;;;5.51;68.79;95456.75;4235567;27;20043;-69
2024/02/19 04:33:04;;;;;;;44.10;35.13;;;;;;;5.59;69.01;95452.78;4209829;28;20056;-69
2024/02/19 04:35:07;;;;;;;38.33;34.13;;;;;;;5.64;68.21;95451.50;4245809;27;20043;-68
2024/02/19 04:37:09;;;;;;;35.97;31.77;;;;;;;5.70;67.82;95451.06;4234743;27;20085;-66
2024/02/19 04:39:12;;;;;;;39.05;32.13;;;;;;;5.69;67.85;95454.59;4245116;27;20126;-68
2024/02/19 04:41:14;;;;;;;39.22;31.92;;;;;;;5.71;68.52;95439.72;4242496;27;20047;-66
2024/02/19 04:43:16;;;;;;;35.63;31.40;;;;;;;5.77;67.90;95440.25;4241581;27;20050;-68
2024/02/19 04:45:18;;;;;;;37.50;32.47;;;;;;;5.79;67.69;95443.56;4245072;27;20054;-68
2024/02/19 04:47:20;;;;;;;40.60;32.53;;;;;;;5.81;67.95;95436.44;4244506;27;20138;-67
2024/02/19 04:49:21;;;;;;;39.47;32.65;;;;;;;5.79;67.86;95438.34;4244181;27;20054;-67
2024/02/19 04:51:24;;;;;;;36.90;32.42;;;;;;;5.82;67.58;95438.13;4244798;27;20043;-66
2024/02/19 04:53:26;;;;;;;38.08;32.25;;;;;;;5.85;68.11;95440.47;4242759;27;20451;-68
2024/02/19 04:55:28;;;;;;;37.47;31.42;;;;;;;5.84;67.82;95442.25;4245092;27;20118;-68
2024/02/19 04:57:30;;;;;;;35.22;30.55;;;;;;;5.83;67.80;95437.16;4244283;27;20051;-68
2024/02/19 04:59:32;;;;;;;35.80;31.85;;;;;;;5.72;68.10;95438.81;4233728;27;20534;-66
2024/02/19 05:01:34;;;;;;;38.97;31.95;;;;;;;5.60;68.22;95434.47;4244431;27;20579;-69
2024/02/19 05:03:36;;;;;;;38.15;32.67;;;;;;;5.02;69.93;95439.44;4232900;27;20116;-69
2024/02/19 05:05:38;;;;;;;40.83;33.72;;;;;;;4.93;71.02;95440.91;4236696;27;20047;-71
2024/02/19 05:07:40;;;;;;;37.35;31.75;;;;;;;5.03;70.66;95443.69;4245409;27;20047;-69
2024/02/19 05:09:42;;;;;;;38.45;32.50;;;;;;;5.17;70.27;95441.91;4244172;27;20135;-70
2024/02/19 05:11:46;;;;;;;36.83;31.27;;;;;;;5.35;70.29;95438.00;4243147;27;20063;-70
2024/02/19 05:13:48;;;;;;;36.63;31.92;;;;;;;5.45;69.88;95441.59;4229020;27;20147;-68
2024/02/19 05:15:50;;;;;;;37.03;31.15;;;;;;;5.53;69.13;95435.88;4209278;28;20055;-72
2024/02/19 05:17:52;;;;;;;41.53;33.05;;;;;;;5.61;69.24;95440.50;4243119;27;20131;-69
2024/02/19 05:19:54;;;;;;;38.10;33.42;;;;;;;5.70;69.13;95440.69;4216830;28;20047;-68
2024/02/19 05:21:56;;;;;;;37.35;33.25;;;;;;;5.73;68.38;95435.25;4238012;27;20093;-70
2024/02/19 05:24:00;;;;;;;38.05;32.17;;;;;;;5.75;68.16;95442.94;4244484;27;20138;-69
2024/02/19 05:26:02;;;;;;;42.75;33.65;;;;;;;5.76;68.53;95441.97;4233792;27;20051;-69
2024/02/19 05:28:07;;;;;;;38.10;32.60;;;;;;;5.80;68.50;95448.63;4245505;27;20101;-68
2024/02/19 05:30:10;;;;;;;36.85;32.33;;;;;;;5.87;68.27;95441.19;4244067;27;20045;-70
2024/02/19 05:32:11;;;;;;;36.33;32.42;;;;;;;5.97;67.71;95441.41;4241539;27;20156;-71
2024/02/19 05:34:16;;;;;;;39.85;33.70;;;;;;;6.01;67.94;95448.03;4238175;27;20059;-69
2024/02/19 05:36:18;;;;;;;39.05;33.10;;;;;;;6.02;67.78;95444.47;4242749;27;20633;-70
2024/02/19 05:38:20;;;;;;;40.53;32.70;;;;;;;6.06;68.01;95443.31;4237279;27;20039;-69
2024/02/19 05:40:22;;;;;;;38.55;32.83;;;;;;;6.13;67.90;95447.97;4232350;27;20050;-68
2024/02/19 05:42:24;;;;;;;39.30;32.83;;;;;;;6.17;67.62;95448.56;4244156;27;20096;-70
2024/02/19 05:44:25;;;;;;;38.30;33.92;;;;;;;6.24;67.50;95443.72;4244963;27;20129;-70
2024/02/19 05:46:27;;;;;;;38.45;33.13;;;;;;;6.18;67.33;95444.19;4237572;27;20047;-69
2024/02/19 05:48:30;;;;;;;45.55;34.97;;;;;;;6.07;67.62;95440.63;4198910;28;20058;-68
2024/02/19 05:50:32;;;;;;;40.67;34.05;;;;;;;6.07;67.87;95443.22;4226539;28;20135;-69
2024/02/19 05:52:34;;;;;;;49.50;34.10;;;;;;;6.06;67.63;95445.91;4235240;27;20039;-69
2024/02/19 05:54:36;;;;;;;40.85;34.53;;;;;;;6.07;67.96;95445.00;4244696;27;20487;-67
2024/02/19 05:56:38;;;;;;;46.65;35.08;;;;;;;6.12;67.54;95443.69;4242546;27;20519;-69
2024/02/19 05:58:40;;;;;;;42.75;35.38;;;;;;;6.13;67.42;95441.91;4244354;27;20103;-70
2024/02/19 06:00:42;;;;;;;40.38;34.67;;;;;;;6.17;67.70;95445.13;4221287;28;20245;-67
2024/02/19 06:02:44;;;;;;;44.05;35.50;;;;;;;6.17;67.09;95447.72;4235413;27;20039;-70
2024/02/19 06:04:46;;;;;;;42.70;35.45;;;;;;;6.17;67.77;95451.16;4243863;27;20495;-69
2024/02/19 06:06:48;;;;;;;44.88;37.75;;;;;;;6.03;67.48;95436.56;4243955;27;20072;-70
2024/02/19 06:08:50;;;;;;;51.85;39.33;;;;;;;5.91;67.91;95451.25;4243819;27;20217;-71
2024/02/19 06:10:53;;;;;;;47.60;39.53;;;;;;;5.85;67.82;95445.69;4242230;27;20053;-69
2024/02/19 06:12:54;;;;;;;52.05;40.40;;;;;;;5.79;68.23;95433.97;4239090;27;20291;-70
2024/02/19 06:14:56;;;;;;;50.53;40.97;;;;;;;5.74;68.52;95436.06;4240317;27;20051;-69
2024/02/19 06:16:59;;;;;;;52.17;40.67;;;;;;;5.75;68.37;95435.13;4243222;27;20043;-69
2024/02/19 06:19:02;;;;;;;55.97;42.28;;;;;;;5.79;68.79;95438.34;4237251;27;20074;-68
2024/02/19 06:21:04;;;;;;;53.33;40.65;;;;;;;5.80;68.67;95443.41;4240616;27;20119;-70
2024/02/19 06:23:06;;;;;;;48.72;40.25;;;;;;;5.69;68.53;95441.59;4243604;27;20346;-69
2024/02/19 06:25:10;;;;;;;53.88;42.13;;;;;;;5.66;68.57;95434.03;4214348;28;20133;-69
2024/02/19 06:27:12;;;;;;;58.63;43.17;;;;;;;5.59;68.76;95442.38;4241915;27;20100;-70
2024/02/19 06:29:13;;;;;;;52.70;42.75;;;;;;;5.55;69.75;95431.41;4241034;27;20411;-72
2024/02/19 06:31:15;;;;;;;49.28;39.55;;;;;;;5.36;69.49;95441.44;4239484;27;20514;-70
2024/02/19 06:33:17;;;;;;;44.80;38.40;;;;;;;5.12;70.27;95442.22;4225285;28;20055;-70
2024/02/19 06:35:19;;;;;;;54.03;40.38;;;;;;;4.98;71.03;95448.38;4243243;27;20043;-68
2024/02/19 06:37:21;;;;;;;51.00;39.33;;;;;;;5.08;71.62;95451.16;4240531;27;20050;-70
2024/02/19 06:39:23;;;;;;;52.45;39.83;;;;;;;5.26;71.14;95444.66;4238675;27;20051;-71
2024/02/19 06:41:25;;;;;;;51.50;40.83;;;;;;;4.93;71.02;95451.28;4236504;27;20050;-69
2024/02/19 06:43:27;;;;;;;52.03;40.75;;;;;;;4.95;71.13;95451.19;4236368;27;20081;-71
2024/02/19 06:45:29;;;;;;;57.45;42.22;;;;;;;4.99;71.78;95450.03;4239219;27;20047;-69
2024/02/19 06:47:30;;;;;;;49.33;40.40;;;;;;;5.09;71.25;95450.22;4223718;28;20473;-69
2024/02/19 06:49:32;;;;;;;52.97;40.90;;;;;;;5.13;70.72;95443.88;4236968;27;20050;-68
2024/02/19 06:51:34;;;;;;;53.70;41.90;;;;;;;5.04;70.71;95452.31;4233213;27;20394;-69
2024/02/19 06:53:36;;;;;;;47.47;38.90;;;;;;;4.92;71.72;95444.41;4238943;27;20587;-69
2024/02/19 06:55:38;;;;;;;44.70;38.20;;;;;;;4.90;71.85;95455.84;4237258;27;20478;-70
2024/02/19 06:57:40;;;;;;;51.05;40.20;;;;;;;4.89;72.31;95455.03;4242748;27;20115;-70
2024/02/19 06:59:42;;;;;;;54.25;43.15;;;;;;;4.80;71.48;95449.66;4242034;27;20089;-69
2024/02/19 07:01:44;;;;;;;54.25;42.58;;;;;;;4.81;71.92;95456.50;4239513;27;20122;-69
2024/02/19 07:03:46;;;;;;;66.70;43.63;;;;;;;4.38;73.56;95455.03;4242999;27;20049;-70
2024/02/19 07:05:48;;;;;;;69.82;46.35;;;;;;;4.24;74.00;95452.56;4236442;27;20048;-69
2024/02/19 07:07:50;;;;;;;71.38;46.38;;;;;;;4.37;73.91;95447.38;4236303;27;20538;-69
2024/02/19 07:09:52;;;;;;;68.57;46.95;;;;;;;4.28;74.00;95451.38;4239085;27;20044;-68
2024/02/19 07:11:54;;;;;;;68.82;47.65;;;;;;;4.42;74.32;95447.88;4238923;27;20740;-69
2024/02/19 07:13:56;;;;;;;71.50;50.47;;;;;;;4.33;74.25;95451.94;4237947;27;20544;-70
2024/02/19 07:15:57;;;;;;;69.13;53.15;;;;;;;4.42;73.83;95442.69;4224099;28;20046;-70
2024/02/19 07:17:59;;;;;;;68.57;51.25;;;;;;;4.53;73.31;95449.75;4224376;28;20047;-71
2024/02/19 07:20:03;;;;;;;70.95;55.22;;;;;;;4.66;74.14;95445.41;4213681;28;20047;-70
2024/02/19 07:22:05;;;;;;;84.18;59.40;;;;;;;4.87;73.15;95443.91;4219624;28;20127;-70
2024/02/19 07:24:07;;;;;;;69.43;55.05;;;;;;;5.11;72.94;95443.16;4242519;27;20058;-71
2024/02/19 07:26:09;;;;;;;72.03;56.17;;;;;;;5.23;71.95;95444.91;4237249;27;20048;-69
2024/02/19 07:28:11;;;;;;;69.85;54.90;;;;;;;5.10;71.56;95439.72;4223311;28;20052;-69
2024/02/19 07:30:13;;;;;;;70.18;56.30;;;;;;;5.20;72.06;95444.28;4240740;27;20483;-70
2024/02/19 07:32:15;;;;;;;71.57;54.75;;;;;;;5.27;71.41;95443.75;4239547;27;20541;-72
2024/02/19 07:34:17;;;;;;;76.35;55.25;;;;;;;5.33;70.96;95440.72;4235250;27;20125;-68
2024/02/19 07:36:19;;;;;;;71.53;53.53;;;;;;;5.44;71.34;95441.69;4239721;27;20046;-70
2024/02/19 07:38:21;;;;;;;72.88;54.97;;;;;;;5.54;71.41;95446.13;4239725;27;20510;-66
2024/02/19 07:40:23;;;;;;;70.40;53.13;;;;;;;5.67;70.44;95440.06;4240644;27;20051;-67
2024/02/19 07:42:25;;;;;;;65.47;51.53;;;;;;;5.80;69.50;95435.63;4230727;28;20523;-68
2024/02/19 07:44:27;;;;;;;75.95;59.33;;;;;;;5.82;69.17;95432.91;4241600;28;20439;-71
2024/02/19 07:46:29;;;;;;;76.30;57.70;;;;;;;5.76;69.11;95441.97;4241423;28;20063;-69
2024/02/19 07:48:31;;;;;;;75.32;60.88;;;;;;;5.76;69.98;95428.97;4222390;28;20188;-71
2024/02/19 07:50:34;;;;;;;71.65;55.67;;;;;;;5.80;69.75;95430.41;4222449;28;20131;-72
2024/02/19 07:52:35;;;;;;;75.03;59.72;;;;;;;5.88;69.59;95433.31;4242126;28;20122;-71
2024/02/19 07:54:37;;;;;;;66.80;54.60;;;;;;;5.73;69.52;95430.03;4243027;27;20108;-70
2024/02/19 07:56:39;;;;;;;62.20;49.28;;;;;;;5.50;69.97;95426.50;4243983;27;20047;-68
2024/02/19 07:58:41;;;;;;;65.05;52.28;;;;;;;5.47;70.81;95428.50;4246397;27;20519;-69
2024/02/19 08:00:43;;;;;;;61.65;49.35;;;;;;;5.44;71.08;95428.72;4246238;27;20050;-70
2024/02/19 08:02:45;;;;;;;54.17;44.30;;;;;;;5.50;71.27;95428.28;4244686;27;20047;-71
2024/02/19 08:04:47;;;;;;;57.58;43.03;;;;;;;5.54;70.54;95425.34;4227808;28;20093;-68
2024/02/19 08:06:49;;;;;;;56.00;43.00;;;;;;;5.56;70.44;95435.63;4214709;28;20091;-70
2024/02/19 08:08:51;;;;;;;53.05;39.90;;;;;;;5.68;69.88;95429.56;4241279;27;20126;-70
2024/02/19 08:10:53;;;;;;;57.50;41.30;;;;;;;5.73;69.79;95430.03;4237319;27;20051;-69
2024/02/19 08:12:55;;;;;;;56.33;40.53;;;;;;;5.63;70.21;95425.63;4238614;27;20435;-71
2024/02/19 08:14:57;;;;;;;54.00;40.63;;;;;;;5.53;69.85;95430.66;4245175;27;20413;-69
2024/02/19 08:16:59;;;;;;;57.88;41.22;;;;;;;5.46;70.54;95427.69;4245058;27;20071;-69
2024/02/19 08:19:01;;;;;;;53.50;40.83;;;;;;;5.51;70.42;95432.56;4240435;27;20154;-68
2024/02/19 08:21:03;;;;;;;52.28;40.25;;;;;;;5.53;70.15;95423.69;4226657;28;20044;-72
2024/02/19 08:23:06;;;;;;;58.60;41.45;;;;;;;5.59;70.49;95427.59;4244702;27;20146;-70
2024/02/19 08:25:08;;;;;;;54.13;40.60;;;;;;;5.57;70.05;95421.72;4245676;27;20121;-67
2024/02/19 08:27:10;;;;;;;55.30;40.38;;;;;;;5.67;70.56;95420.09;4245532;27;20372;-69
2024/02/19 08:29:12;;;;;;;54.25;42.22;;;;;;;5.81;69.90;95426.03;4244828;27;20703;-72
2024/02/19 08:31:14;;;;;;;53.63;41.03;;;;;;;5.92;69.74;95426.13;4217058;28;20131;-72
2024/02/19 08:33:16;;;;;;;55.45;45.35;;;;;;;5.96;69.51;95432.78;4244550;27;20047;-72
2024/02/19 08:35:18;;;;;;;63.75;46.30;;;;;;;5.86;69.28;95423.97;4226446;28;20058;-71
2024/02/19 08:37:21;;;;;;;61.95;45.08;;;;;;;5.89;69.48;95421.97;4226622;28;20487;-68
2024/02/19 08:39:22;;;;;;;58.50;45.28;;;;;;;5.87;69.78;95430.81;4239476;27;20043;-69
2024/02/19 08:41:24;;;;;;;73.57;47.92;;;;;;;5.91;69.68;95430.47;4240528;27;20055;-69
2024/02/19 08:43:26;;;;;;;78.30;53.30;;;;;;;5.87;69.07;95431.66;4242468;27;20050;-70
2024/02/19 08:45:28;;;;;;;85.28;55.58;;;;;;;5.87;69.58;95426.44;4230470;27;20130;-70
2024/02/19 08:47:37;;;;;;;58.83;46.42;;;;;;;5.69;69.60;95423.41;4238078;27;20047;-69
2024/02/19 08:49:40;;;;;;;73.20;51.75;;;;;;;5.69;70.65;95426.00;4234558;27;20494;-68
2024/02/19 08:51:42;;;;;;;68.75;49.85;;;;;;;5.77;70.44;95422.03;4232125;27;20072;-68
2024/02/19 08:53:44;;;;;;;57.63;42.70;;;;;;;5.76;70.22;95428.97;4239431;27;20043;-70
2024/02/19 08:55:49;;;;;;;67.65;44.67;;;;;;;5.71;70.83;95428.50;4238738;27;20057;-70
2024/02/19 08:57:51;;;;;;;58.88;43.17;;;;;;;5.82;70.70;95427.72;4244774;27;20078;-71
2024/02/19 08:59:53;;;;;;;61.83;44.40;;;;;;;5.90;70.65;95422.78;4244777;27;20190;-71
2024/02/19 09:01:57;;;;;;;53.95;42.08;;;;;;;5.95;70.67;95423.31;4245722;27;20099;-69
2024/02/19 09:03:59;;;;;;;;;;;;;;;6.18;70.52;95429.41;4244069;27;20438;-69
2024/02/19 09:06:01;;;;;;;51.60;41.28;;;;;;;6.41;69.52;95421.63;4244022;27;19919;-70
2024/02/19 09:08:06;;;;;;;60.78;41.83;;;;;;;6.68;68.53;95423.94;4245766;27;20088;-71
2024/02/19 09:10:08;;;;;;;61.80;44.63;;;;;;;6.90;67.89;95430.91;4244891;27;20184;-72
2024/02/19 09:12:11;;;;;;;63.10;43.88;;;;;;;6.84;66.98;95429.63;4226446;28;20572;-70
2024/02/19 09:14:13;;;;;;;57.17;41.97;;;;;;;6.77;67.39;95420.63;4219297;28;20108;-70
2024/02/19 09:16:15;;;;;;;58.42;42.47;;;;;;;6.72;67.65;95420.16;4226422;28;20054;-73
2024/02/19 09:18:17;;;;;;;53.42;40.47;;;;;;;6.84;67.38;95420.97;4223632;27;20051;-71
2024/02/19 09:20:19;;;;;;;63.60;44.80;;;;;;;6.27;68.40;95423.50;4242403;27;20047;-72
2024/02/19 09:22:22;;;;;;;55.08;41.22;;;;;;;6.19;69.82;95427.63;4236197;27;20093;-71
2024/02/19 09:24:25;;;;;;;55.83;42.13;;;;;;;6.19;69.30;95423.25;4243064;27;20059;-71
2024/02/19 09:26:27;;;;;;;54.88;41.33;;;;;;;6.05;69.34;95420.88;4241599;27;20091;-70
2024/02/19 09:28:29;;;;;;;61.80;43.30;;;;;;;6.18;69.84;95426.00;4239915;27;20091;-68
2024/02/19 09:30:31;;;;;;;53.13;40.75;;;;;;;6.19;69.38;95425.84;4225790;28;20115;-71